sensor_id;sensor_type;location;lat;lon;timestamp;temperature;humidity
61916;DHT22;47868;51.326;6.550;2022-09-25T00:01:57;15.30;99.90
61916;DHT22;47868;51.326;6.550;2022-09-25T00:04:23;15.30;99.90
61916;DHT22;47868;51.326;6.550;2022-09-25T00:06:48;15.30;99.90
61916;DHT22;47868;51.326;6.550;2022-09-25T00:09:14;15.20;99.90
61916;DHT22;47868;51.326;6.550;2022-09-25T00:11:45;15.20;99.90
61916;DHT22;47868;51.326;6.550;2022-09-25T00:14:10;15.20;99.90
61916;DHT22;47868;51.326;6.550;2022-09-25T00:16:36;15.10;99.90
61916;DHT22;47868;51.326;6.550;2022-09-25T00:19:02;15.10;99.90
61916;DHT22;47868;51.326;6.550;2022-09-25T00:21:46;15.10;99.90
61916;DHT22;47868;51.326;6.550;2022-09-25T00:24:15;15.00;99.90
61916;DHT22;47868;51.326;6.550;2022-09-25T00:26:42;15.10;99.90
61916;DHT22;47868;51.326;6.550;2022-09-25T00:29:14;15.10;99.90
61916;DHT22;47868;51.326;6.550;2022-09-25T00:31:40;15.10;99.90
61916;DHT22;47868;51.326;6.550;2022-09-25T00:34:05;15.10;99.90
61916;DHT22;47868;51.326;6.550;2022-09-25T00:36:32;15.10;99.90
61916;DHT22;47868;51.326;6.550;2022-09-25T00:38:58;15.10;99.90
61916;DHT22;47868;51.326;6.550;2022-09-25T00:41:26;15.10;99.90
61916;DHT22;47868;51.326;6.550;2022-09-25T00:43:54;15.10;99.90
61916;DHT22;47868;51.326;6.550;2022-09-25T00:49:02;15.10;99.90
61916;DHT22;47868;51.326;6.550;2022-09-25T00:51:49;15.10;99.90
61916;DHT22;47868;51.326;6.550;2022-09-25T00:54:21;15.10;99.90
61916;DHT22;47868;51.326;6.550;2022-09-25T00:56:49;15.10;99.90
61916;DHT22;47868;51.326;6.550;2022-09-25T00:59:26;15.10;99.90
61916;DHT22;47868;51.326;6.550;2022-09-25T01:01:54;15.10;99.90
61916;DHT22;47868;51.326;6.550;2022-09-25T01:04:20;15.00;99.90
61916;DHT22;47868;51.326;6.550;2022-09-25T01:06:51;15.00;99.90
61916;DHT22;47868;51.326;6.550;2022-09-25T01:09:18;15.00;99.90
61916;DHT22;47868;51.326;6.550;2022-09-25T01:11:44;15.00;99.90
61916;DHT22;47868;51.326;6.550;2022-09-25T01:14:10;15.00;99.90
61916;DHT22;47868;51.326;6.550;2022-09-25T01:16:44;15.00;99.90
61916;DHT22;47868;51.326;6.550;2022-09-25T01:22:04;15.00;99.90
61916;DHT22;47868;51.326;6.550;2022-09-25T01:27:40;15.00;99.90
61916;DHT22;47868;51.326;6.550;2022-09-25T01:30:11;15.00;99.90
61916;DHT22;47868;51.326;6.550;2022-09-25T01:36:06;15.00;99.90
61916;DHT22;47868;51.326;6.550;2022-09-25T01:38:32;15.00;99.90
61916;DHT22;47868;51.326;6.550;2022-09-25T01:43:37;15.00;99.90
61916;DHT22;47868;51.326;6.550;2022-09-25T01:46:12;15.00;99.90
61916;DHT22;47868;51.326;6.550;2022-09-25T01:48:41;15.00;99.90
61916;DHT22;47868;51.326;6.550;2022-09-25T01:51:17;15.00;99.90
61916;DHT22;47868;51.326;6.550;2022-09-25T01:53:48;15.00;99.90
61916;DHT22;47868;51.326;6.550;2022-09-25T01:56:37;15.00;99.90
61916;DHT22;47868;51.326;6.550;2022-09-25T01:59:14;15.00;99.90
61916;DHT22;47868;51.326;6.550;2022-09-25T02:01:42;14.90;99.90
61916;DHT22;47868;51.326;6.550;2022-09-25T02:04:15;14.90;99.90
61916;DHT22;47868;51.326;6.550;2022-09-25T02:06:46;14.90;99.90
61916;DHT22;47868;51.326;6.550;2022-09-25T02:09:23;14.90;99.90
61916;DHT22;47868;51.326;6.550;2022-09-25T02:11:53;14.90;99.90
61916;DHT22;47868;51.326;6.550;2022-09-25T02:14:30;14.90;99.90
61916;DHT22;47868;51.326;6.550;2022-09-25T02:17:00;14.90;99.90
61916;DHT22;47868;51.326;6.550;2022-09-25T02:19:27;14.80;99.90
61916;DHT22;47868;51.326;6.550;2022-09-25T02:22:18;14.80;99.90
61916;DHT22;47868;51.326;6.550;2022-09-25T02:24:56;14.90;99.90
61916;DHT22;47868;51.326;6.550;2022-09-25T02:27:23;14.90;99.90
61916;DHT22;47868;51.326;6.550;2022-09-25T02:29:50;14.90;99.90
61916;DHT22;47868;51.326;6.550;2022-09-25T02:32:19;14.90;99.90
61916;DHT22;47868;51.326;6.550;2022-09-25T02:34:46;14.90;99.90
61916;DHT22;47868;51.326;6.550;2022-09-25T02:37:13;14.90;99.90
61916;DHT22;47868;51.326;6.550;2022-09-25T02:39:39;14.80;99.90
61916;DHT22;47868;51.326;6.550;2022-09-25T02:42:30;14.80;99.90
61916;DHT22;47868;51.326;6.550;2022-09-25T02:46:20;14.80;99.90
61916;DHT22;47868;51.326;6.550;2022-09-25T02:51:31;14.80;99.90
61916;DHT22;47868;51.326;6.550;2022-09-25T02:54:16;14.80;99.90
61916;DHT22;47868;51.326;6.550;2022-09-25T02:57:42;14.80;99.90
61916;DHT22;47868;51.326;6.550;2022-09-25T02:59:44;14.70;99.90
61916;DHT22;47868;51.326;6.550;2022-09-25T03:02:11;14.70;99.90
61916;DHT22;47868;51.326;6.550;2022-09-25T03:04:40;14.70;99.90
61916;DHT22;47868;51.326;6.550;2022-09-25T03:07:06;14.80;99.90
61916;DHT22;47868;51.326;6.550;2022-09-25T03:09:34;14.70;99.90
61916;DHT22;47868;51.326;6.550;2022-09-25T03:12:02;14.70;99.90
61916;DHT22;47868;51.326;6.550;2022-09-25T03:14:30;14.60;99.90
61916;DHT22;47868;51.326;6.550;2022-09-25T03:16:58;14.60;99.90
61916;DHT22;47868;51.326;6.550;2022-09-25T03:19:26;14.60;99.90
61916;DHT22;47868;51.326;6.550;2022-09-25T03:21:53;14.60;99.90
61916;DHT22;47868;51.326;6.550;2022-09-25T03:24:18;14.60;99.90
61916;DHT22;47868;51.326;6.550;2022-09-25T03:26:44;14.50;99.90
61916;DHT22;47868;51.326;6.550;2022-09-25T03:29:11;14.50;99.90
61916;DHT22;47868;51.326;6.550;2022-09-25T03:31:37;14.50;99.90
61916;DHT22;47868;51.326;6.550;2022-09-25T03:34:04;14.50;99.90
61916;DHT22;47868;51.326;6.550;2022-09-25T03:36:30;14.50;99.90
61916;DHT22;47868;51.326;6.550;2022-09-25T03:38:57;14.50;99.90
61916;DHT22;47868;51.326;6.550;2022-09-25T03:41:29;14.60;99.90
61916;DHT22;47868;51.326;6.550;2022-09-25T03:43:55;14.50;99.90
61916;DHT22;47868;51.326;6.550;2022-09-25T03:46:27;14.50;99.90
61916;DHT22;47868;51.326;6.550;2022-09-25T03:48:54;14.60;99.90
61916;DHT22;47868;51.326;6.550;2022-09-25T03:51:20;14.50;99.90
61916;DHT22;47868;51.326;6.550;2022-09-25T03:53:47;14.50;99.90
61916;DHT22;47868;51.326;6.550;2022-09-25T03:56:19;14.50;99.90
61916;DHT22;47868;51.326;6.550;2022-09-25T03:58:46;14.50;99.90
61916;DHT22;47868;51.326;6.550;2022-09-25T04:01:12;14.50;99.90
61916;DHT22;47868;51.326;6.550;2022-09-25T04:03:38;14.50;99.90
61916;DHT22;47868;51.326;6.550;2022-09-25T04:06:06;14.50;99.90
61916;DHT22;47868;51.326;6.550;2022-09-25T04:08:34;14.50;99.90
61916;DHT22;47868;51.326;6.550;2022-09-25T04:11:01;14.40;99.90
61916;DHT22;47868;51.326;6.550;2022-09-25T04:13:29;14.40;99.90
61916;DHT22;47868;51.326;6.550;2022-09-25T04:15:56;14.40;99.90
61916;DHT22;47868;51.326;6.550;2022-09-25T04:18:23;14.50;99.90
61916;DHT22;47868;51.326;6.550;2022-09-25T04:20:49;14.40;99.90
61916;DHT22;47868;51.326;6.550;2022-09-25T04:23:15;14.40;99.90
61916;DHT22;47868;51.326;6.550;2022-09-25T04:25:41;14.40;99.90
61916;DHT22;47868;51.326;6.550;2022-09-25T04:28:06;14.30;99.90
61916;DHT22;47868;51.326;6.550;2022-09-25T04:30:32;14.30;99.90
61916;DHT22;47868;51.326;6.550;2022-09-25T04:32:58;14.20;99.90
61916;DHT22;47868;51.326;6.550;2022-09-25T04:35:43;14.80;99.90
61916;DHT22;47868;51.326;6.550;2022-09-25T04:38:08;14.20;99.90
61916;DHT22;47868;51.326;6.550;2022-09-25T04:40:34;14.20;99.90
61916;DHT22;47868;51.326;6.550;2022-09-25T04:43:02;14.20;99.90
61916;DHT22;47868;51.326;6.550;2022-09-25T04:45:29;14.30;99.90
61916;DHT22;47868;51.326;6.550;2022-09-25T04:47:58;14.20;99.90
61916;DHT22;47868;51.326;6.550;2022-09-25T04:50:24;14.20;99.90
61916;DHT22;47868;51.326;6.550;2022-09-25T04:52:50;14.20;99.90
61916;DHT22;47868;51.326;6.550;2022-09-25T04:55:17;14.20;99.90
61916;DHT22;47868;51.326;6.550;2022-09-25T04:57:43;14.10;99.90
61916;DHT22;47868;51.326;6.550;2022-09-25T05:00:09;14.10;99.90
61916;DHT22;47868;51.326;6.550;2022-09-25T05:02:35;14.00;99.90
61916;DHT22;47868;51.326;6.550;2022-09-25T05:05:01;14.00;99.90
61916;DHT22;47868;51.326;6.550;2022-09-25T05:07:27;13.90;99.90
61916;DHT22;47868;51.326;6.550;2022-09-25T05:09:53;14.00;99.90
61916;DHT22;47868;51.326;6.550;2022-09-25T05:12:18;13.90;99.90
61916;DHT22;47868;51.326;6.550;2022-09-25T05:14:45;14.00;99.90
61916;DHT22;47868;51.326;6.550;2022-09-25T05:17:10;14.00;99.90
61916;DHT22;47868;51.326;6.550;2022-09-25T05:19:37;14.00;99.90
61916;DHT22;47868;51.326;6.550;2022-09-25T05:22:03;14.00;99.90
61916;DHT22;47868;51.326;6.550;2022-09-25T05:24:29;13.90;99.90
61916;DHT22;47868;51.326;6.550;2022-09-25T05:26:56;13.90;99.90
61916;DHT22;47868;51.326;6.550;2022-09-25T05:29:22;13.90;99.90
61916;DHT22;47868;51.326;6.550;2022-09-25T05:31:47;13.80;99.90
61916;DHT22;47868;51.326;6.550;2022-09-25T05:34:14;13.80;99.90
61916;DHT22;47868;51.326;6.550;2022-09-25T05:36:41;13.90;99.90
61916;DHT22;47868;51.326;6.550;2022-09-25T05:39:08;13.90;99.90
61916;DHT22;47868;51.326;6.550;2022-09-25T05:41:34;13.90;99.90
61916;DHT22;47868;51.326;6.550;2022-09-25T05:44:00;13.90;99.90
61916;DHT22;47868;51.326;6.550;2022-09-25T05:46:34;13.90;99.90
61916;DHT22;47868;51.326;6.550;2022-09-25T05:49:00;13.80;99.90
61916;DHT22;47868;51.326;6.550;2022-09-25T05:51:28;13.70;99.90
61916;DHT22;47868;51.326;6.550;2022-09-25T05:53:54;13.60;99.90
61916;DHT22;47868;51.326;6.550;2022-09-25T05:56:21;13.50;99.90
61916;DHT22;47868;51.326;6.550;2022-09-25T05:58:49;13.50;99.90
61916;DHT22;47868;51.326;6.550;2022-09-25T06:01:15;13.50;99.90
61916;DHT22;47868;51.326;6.550;2022-09-25T06:03:41;13.50;99.90
61916;DHT22;47868;51.326;6.550;2022-09-25T06:06:07;13.40;99.90
61916;DHT22;47868;51.326;6.550;2022-09-25T06:08:33;13.50;99.90
61916;DHT22;47868;51.326;6.550;2022-09-25T06:11:02;13.50;99.90
61916;DHT22;47868;51.326;6.550;2022-09-25T06:13:29;13.50;99.90
61916;DHT22;47868;51.326;6.550;2022-09-25T06:15:59;13.30;99.90
61916;DHT22;47868;51.326;6.550;2022-09-25T06:18:25;13.30;99.90
61916;DHT22;47868;51.326;6.550;2022-09-25T06:20:58;13.30;99.90
61916;DHT22;47868;51.326;6.550;2022-09-25T06:23:24;13.30;99.90
61916;DHT22;47868;51.326;6.550;2022-09-25T06:25:50;13.30;99.90
61916;DHT22;47868;51.326;6.550;2022-09-25T06:28:15;13.30;99.90
61916;DHT22;47868;51.326;6.550;2022-09-25T06:30:41;13.30;99.90
61916;DHT22;47868;51.326;6.550;2022-09-25T06:33:12;13.30;99.90
61916;DHT22;47868;51.326;6.550;2022-09-25T06:35:47;13.30;99.90
61916;DHT22;47868;51.326;6.550;2022-09-25T06:38:14;13.40;99.90
61916;DHT22;47868;51.326;6.550;2022-09-25T06:40:40;13.40;99.90
61916;DHT22;47868;51.326;6.550;2022-09-25T06:43:10;13.50;99.90
61916;DHT22;47868;51.326;6.550;2022-09-25T06:45:36;13.50;99.90
61916;DHT22;47868;51.326;6.550;2022-09-25T06:48:08;13.50;99.90
61916;DHT22;47868;51.326;6.550;2022-09-25T06:50:50;13.50;99.90
61916;DHT22;47868;51.326;6.550;2022-09-25T06:53:18;13.50;99.90
61916;DHT22;47868;51.326;6.550;2022-09-25T06:55:44;13.50;99.90
61916;DHT22;47868;51.326;6.550;2022-09-25T06:58:21;13.60;99.90
61916;DHT22;47868;51.326;6.550;2022-09-25T07:00:49;13.60;99.90
61916;DHT22;47868;51.326;6.550;2022-09-25T07:03:16;13.60;99.90
61916;DHT22;47868;51.326;6.550;2022-09-25T07:06:01;13.60;99.90
61916;DHT22;47868;51.326;6.550;2022-09-25T07:08:27;13.70;99.90
61916;DHT22;47868;51.326;6.550;2022-09-25T07:10:54;13.70;99.90
61916;DHT22;47868;51.326;6.550;2022-09-25T07:13:23;13.70;99.90
61916;DHT22;47868;51.326;6.550;2022-09-25T07:15:54;13.70;99.90
61916;DHT22;47868;51.326;6.550;2022-09-25T07:18:21;13.80;99.90
61916;DHT22;47868;51.326;6.550;2022-09-25T07:20:48;13.80;99.90
61916;DHT22;47868;51.326;6.550;2022-09-25T07:23:15;13.80;99.90
61916;DHT22;47868;51.326;6.550;2022-09-25T07:25:41;13.90;99.90
61916;DHT22;47868;51.326;6.550;2022-09-25T07:28:08;13.90;99.90
61916;DHT22;47868;51.326;6.550;2022-09-25T07:30:34;14.00;99.90
61916;DHT22;47868;51.326;6.550;2022-09-25T07:33:01;14.10;99.90
61916;DHT22;47868;51.326;6.550;2022-09-25T07:35:26;14.20;99.90
61916;DHT22;47868;51.326;6.550;2022-09-25T07:37:55;14.20;99.90
61916;DHT22;47868;51.326;6.550;2022-09-25T07:40:21;14.30;99.90
61916;DHT22;47868;51.326;6.550;2022-09-25T07:42:47;14.30;99.90
61916;DHT22;47868;51.326;6.550;2022-09-25T07:45:13;14.40;99.90
61916;DHT22;47868;51.326;6.550;2022-09-25T07:47:38;14.40;99.90
61916;DHT22;47868;51.326;6.550;2022-09-25T07:50:04;14.40;99.90
61916;DHT22;47868;51.326;6.550;2022-09-25T07:52:30;14.50;99.90
61916;DHT22;47868;51.326;6.550;2022-09-25T07:54:56;14.50;99.90
61916;DHT22;47868;51.326;6.550;2022-09-25T07:57:22;14.50;99.90
61916;DHT22;47868;51.326;6.550;2022-09-25T07:59:48;14.60;99.90
61916;DHT22;47868;51.326;6.550;2022-09-25T08:02:14;14.70;99.90
61916;DHT22;47868;51.326;6.550;2022-09-25T08:04:40;14.70;99.90
61916;DHT22;47868;51.326;6.550;2022-09-25T08:07:05;14.80;99.90
61916;DHT22;47868;51.326;6.550;2022-09-25T08:09:31;14.90;99.90
61916;DHT22;47868;51.326;6.550;2022-09-25T08:11:57;15.00;99.90
61916;DHT22;47868;51.326;6.550;2022-09-25T08:14:23;15.00;99.90
61916;DHT22;47868;51.326;6.550;2022-09-25T08:16:49;15.10;99.90
61916;DHT22;47868;51.326;6.550;2022-09-25T08:19:16;15.20;99.90
61916;DHT22;47868;51.326;6.550;2022-09-25T08:21:43;15.30;99.90
61916;DHT22;47868;51.326;6.550;2022-09-25T08:24:09;15.30;99.90
61916;DHT22;47868;51.326;6.550;2022-09-25T08:26:35;15.40;99.90
61916;DHT22;47868;51.326;6.550;2022-09-25T08:29:02;15.40;99.90
61916;DHT22;47868;51.326;6.550;2022-09-25T08:31:28;15.50;99.90
61916;DHT22;47868;51.326;6.550;2022-09-25T08:33:54;15.50;99.90
61916;DHT22;47868;51.326;6.550;2022-09-25T08:36:20;15.60;99.90
61916;DHT22;47868;51.326;6.550;2022-09-25T08:38:47;15.60;99.90
61916;DHT22;47868;51.326;6.550;2022-09-25T08:41:20;15.70;99.90
61916;DHT22;47868;51.326;6.550;2022-09-25T08:43:59;15.80;99.90
61916;DHT22;47868;51.326;6.550;2022-09-25T08:46:41;15.80;99.90
61916;DHT22;47868;51.326;6.550;2022-09-25T08:49:36;15.90;99.90
61916;DHT22;47868;51.326;6.550;2022-09-25T08:52:07;15.90;99.90
61916;DHT22;47868;51.326;6.550;2022-09-25T08:54:34;16.00;99.90
61916;DHT22;47868;51.326;6.550;2022-09-25T08:57:10;16.00;99.90
61916;DHT22;47868;51.326;6.550;2022-09-25T08:59:40;16.10;99.90
61916;DHT22;47868;51.326;6.550;2022-09-25T09:02:16;16.20;99.90
61916;DHT22;47868;51.326;6.550;2022-09-25T09:04:49;16.20;99.90
61916;DHT22;47868;51.326;6.550;2022-09-25T09:07:35;16.30;99.90
61916;DHT22;47868;51.326;6.550;2022-09-25T09:12:44;16.60;99.90
61916;DHT22;47868;51.326;6.550;2022-09-25T09:15:33;16.60;99.90
61916;DHT22;47868;51.326;6.550;2022-09-25T09:18:24;16.80;99.90
61916;DHT22;47868;51.326;6.550;2022-09-25T09:23:21;17.00;99.90
61916;DHT22;47868;51.326;6.550;2022-09-25T09:26:01;17.10;99.90
61916;DHT22;47868;51.326;6.550;2022-09-25T09:28:57;17.40;99.90
61916;DHT22;47868;51.326;6.550;2022-09-25T09:42:17;18.50;99.90
61916;DHT22;47868;51.326;6.550;2022-09-25T09:52:57;18.40;99.90
61916;DHT22;47868;51.326;6.550;2022-09-25T09:55:47;18.00;99.90
61916;DHT22;47868;51.326;6.550;2022-09-25T09:58:34;17.70;99.90
61916;DHT22;47868;51.326;6.550;2022-09-25T10:01:04;17.40;99.90
61916;DHT22;47868;51.326;6.550;2022-09-25T10:03:34;17.20;99.90
61916;DHT22;47868;51.326;6.550;2022-09-25T10:06:03;17.00;99.90
61916;DHT22;47868;51.326;6.550;2022-09-25T10:08:30;17.30;99.90
61916;DHT22;47868;51.326;6.550;2022-09-25T10:10:56;17.30;99.90
61916;DHT22;47868;51.326;6.550;2022-09-25T10:13:26;17.30;99.90
61916;DHT22;47868;51.326;6.550;2022-09-25T10:16:10;17.20;99.90
61916;DHT22;47868;51.326;6.550;2022-09-25T10:21:37;17.70;99.90
61916;DHT22;47868;51.326;6.550;2022-09-25T10:24:04;18.20;99.90
61916;DHT22;47868;51.326;6.550;2022-09-25T10:26:36;18.20;99.90
61916;DHT22;47868;51.326;6.550;2022-09-25T10:31:38;17.80;99.90
61916;DHT22;47868;51.326;6.550;2022-09-25T10:34:25;17.50;99.90
61916;DHT22;47868;51.326;6.550;2022-09-25T10:36:54;17.40;99.90
61916;DHT22;47868;51.326;6.550;2022-09-25T10:39:36;17.40;99.90
61916;DHT22;47868;51.326;6.550;2022-09-25T10:42:28;17.90;99.90
61916;DHT22;47868;51.326;6.550;2022-09-25T10:44:55;18.00;99.90
61916;DHT22;47868;51.326;6.550;2022-09-25T10:50:23;18.10;99.90
61916;DHT22;47868;51.326;6.550;2022-09-25T10:52:53;18.00;99.90
61916;DHT22;47868;51.326;6.550;2022-09-25T11:03:31;19.70;97.80
61916;DHT22;47868;51.326;6.550;2022-09-25T11:06:04;20.30;96.00
61916;DHT22;47868;51.326;6.550;2022-09-25T11:08:36;20.60;93.20
61916;DHT22;47868;51.326;6.550;2022-09-25T11:11:05;21.20;91.60
61916;DHT22;47868;51.326;6.550;2022-09-25T11:13:46;21.80;87.00
61916;DHT22;47868;51.326;6.550;2022-09-25T11:16:12;22.30;82.00
61916;DHT22;47868;51.326;6.550;2022-09-25T11:18:43;22.80;74.30
61916;DHT22;47868;51.326;6.550;2022-09-25T11:24:42;23.50;64.50
61916;DHT22;47868;51.326;6.550;2022-09-25T11:27:37;23.90;63.60
61916;DHT22;47868;51.326;6.550;2022-09-25T11:30:09;25.20;61.70
61916;DHT22;47868;51.326;6.550;2022-09-25T11:41:32;26.60;48.70
61916;DHT22;47868;51.326;6.550;2022-09-25T11:47:23;27.30;48.10
61916;DHT22;47868;51.326;6.550;2022-09-25T11:49:51;27.50;43.10
61916;DHT22;47868;51.326;6.550;2022-09-25T12:11:32;30.90;34.90
61916;DHT22;47868;51.326;6.550;2022-09-25T12:17:17;27.90;37.50
61916;DHT22;47868;51.326;6.550;2022-09-25T12:19:53;26.30;40.10
61916;DHT22;47868;51.326;6.550;2022-09-25T12:25:39;26.40;42.60
61916;DHT22;47868;51.326;6.550;2022-09-25T12:31:46;29.40;37.90
61916;DHT22;47868;51.326;6.550;2022-09-25T12:36:46;31.40;33.60
61916;DHT22;47868;51.326;6.550;2022-09-25T12:39:45;32.40;32.80
61916;DHT22;47868;51.326;6.550;2022-09-25T12:42:16;34.70;29.80
61916;DHT22;47868;51.326;6.550;2022-09-25T12:47:41;33.60;29.70
61916;DHT22;47868;51.326;6.550;2022-09-25T12:50:19;31.40;29.80
61916;DHT22;47868;51.326;6.550;2022-09-25T12:56:01;30.90;32.60
61916;DHT22;47868;51.326;6.550;2022-09-25T13:06:54;31.80;30.00
61916;DHT22;47868;51.326;6.550;2022-09-25T13:09:47;30.90;32.40
61916;DHT22;47868;51.326;6.550;2022-09-25T13:12:37;33.00;30.80
61916;DHT22;47868;51.326;6.550;2022-09-25T13:15:18;35.10;28.20
61916;DHT22;47868;51.326;6.550;2022-09-25T13:17:46;35.80;26.50
61916;DHT22;47868;51.326;6.550;2022-09-25T13:23:07;38.30;24.70
61916;DHT22;47868;51.326;6.550;2022-09-25T13:25:51;39.20;24.40
61916;DHT22;47868;51.326;6.550;2022-09-25T13:28:33;41.10;21.80
61916;DHT22;47868;51.326;6.550;2022-09-25T13:31:19;41.30;21.30
61916;DHT22;47868;51.326;6.550;2022-09-25T13:33:49;42.00;20.60
61916;DHT22;47868;51.326;6.550;2022-09-25T13:38:59;44.50;19.70
61916;DHT22;47868;51.326;6.550;2022-09-25T14:00:23;44.20;18.00
61916;DHT22;47868;51.326;6.550;2022-09-25T14:02:53;43.70;17.60
61916;DHT22;47868;51.326;6.550;2022-09-25T14:05:29;40.90;19.50
61916;DHT22;47868;51.326;6.550;2022-09-25T14:08:14;42.60;18.70
61916;DHT22;47868;51.326;6.550;2022-09-25T14:10:43;44.10;17.50
61916;DHT22;47868;51.326;6.550;2022-09-25T14:13:15;44.50;17.20
61916;DHT22;47868;51.326;6.550;2022-09-25T14:15:43;45.10;17.30
61916;DHT22;47868;51.326;6.550;2022-09-25T14:18:42;45.50;17.20
61916;DHT22;47868;51.326;6.550;2022-09-25T14:21:10;46.70;16.50
61916;DHT22;47868;51.326;6.550;2022-09-25T14:23:51;46.20;16.30
61916;DHT22;47868;51.326;6.550;2022-09-25T14:26:20;46.20;16.00
61916;DHT22;47868;51.326;6.550;2022-09-25T14:28:48;46.70;15.60
61916;DHT22;47868;51.326;6.550;2022-09-25T14:40:10;48.60;14.70
61916;DHT22;47868;51.326;6.550;2022-09-25T14:48:03;38.40;18.60
61916;DHT22;47868;51.326;6.550;2022-09-25T14:50:32;33.60;22.20
61916;DHT22;47868;51.326;6.550;2022-09-25T14:53:07;31.00;25.50
61916;DHT22;47868;51.326;6.550;2022-09-25T14:55:38;28.40;28.20
61916;DHT22;47868;51.326;6.550;2022-09-25T14:58:11;27.00;30.00
61916;DHT22;47868;51.326;6.550;2022-09-25T15:00:44;26.30;32.00
61916;DHT22;47868;51.326;6.550;2022-09-25T15:03:13;25.90;33.20
61916;DHT22;47868;51.326;6.550;2022-09-25T15:05:45;25.30;34.40
61916;DHT22;47868;51.326;6.550;2022-09-25T15:08:21;24.70;35.10
61916;DHT22;47868;51.326;6.550;2022-09-25T15:10:48;24.40;35.80
61916;DHT22;47868;51.326;6.550;2022-09-25T15:13:19;24.40;36.30
61916;DHT22;47868;51.326;6.550;2022-09-25T15:15:55;24.40;36.40
61916;DHT22;47868;51.326;6.550;2022-09-25T15:18:41;24.20;36.90
61916;DHT22;47868;51.326;6.550;2022-09-25T15:21:13;24.10;37.30
61916;DHT22;47868;51.326;6.550;2022-09-25T15:23:41;23.80;37.40
61916;DHT22;47868;51.326;6.550;2022-09-25T15:26:13;23.40;38.50
61916;DHT22;47868;51.326;6.550;2022-09-25T15:28:42;23.10;39.20
61916;DHT22;47868;51.326;6.550;2022-09-25T15:31:08;23.00;40.20
61916;DHT22;47868;51.326;6.550;2022-09-25T15:33:36;22.70;41.00
61916;DHT22;47868;51.326;6.550;2022-09-25T15:36:16;22.40;41.90
61916;DHT22;47868;51.326;6.550;2022-09-25T15:38:42;22.10;42.70
61916;DHT22;47868;51.326;6.550;2022-09-25T15:41:12;22.40;43.10
61916;DHT22;47868;51.326;6.550;2022-09-25T15:43:40;23.00;41.90
61916;DHT22;47868;51.326;6.550;2022-09-25T15:49:00;23.00;40.80
61916;DHT22;47868;51.326;6.550;2022-09-25T15:51:28;23.40;41.30
61916;DHT22;47868;51.326;6.550;2022-09-25T15:53:57;23.30;39.90
61916;DHT22;47868;51.326;6.550;2022-09-25T15:56:29;23.10;40.30
61916;DHT22;47868;51.326;6.550;2022-09-25T15:58:56;22.50;39.40
61916;DHT22;47868;51.326;6.550;2022-09-25T16:01:25;22.50;39.60
61916;DHT22;47868;51.326;6.550;2022-09-25T16:04:18;23.30;39.30
61916;DHT22;47868;51.326;6.550;2022-09-25T16:09:49;24.30;37.50
61916;DHT22;47868;51.326;6.550;2022-09-25T16:12:31;26.80;35.00
61916;DHT22;47868;51.326;6.550;2022-09-25T16:14:58;29.30;30.70
61916;DHT22;47868;51.326;6.550;2022-09-25T16:17:38;30.50;27.80
61916;DHT22;47868;51.326;6.550;2022-09-25T16:22:59;31.10;26.80
61916;DHT22;47868;51.326;6.550;2022-09-25T16:25:32;31.70;25.40
61916;DHT22;47868;51.326;6.550;2022-09-25T16:28:07;31.60;25.10
61916;DHT22;47868;51.326;6.550;2022-09-25T16:30:34;31.70;25.50
61916;DHT22;47868;51.326;6.550;2022-09-25T16:33:11;31.60;25.50
61916;DHT22;47868;51.326;6.550;2022-09-25T16:35:40;31.10;25.50
61916;DHT22;47868;51.326;6.550;2022-09-25T16:38:28;29.50;27.50
61916;DHT22;47868;51.326;6.550;2022-09-25T16:43:35;26.70;30.60
61916;DHT22;47868;51.326;6.550;2022-09-25T16:46:21;25.40;32.80
61916;DHT22;47868;51.326;6.550;2022-09-25T16:48:58;24.00;35.40
61916;DHT22;47868;51.326;6.550;2022-09-25T16:51:25;23.40;37.00
61916;DHT22;47868;51.326;6.550;2022-09-25T16:53:52;22.70;38.30
61916;DHT22;47868;51.326;6.550;2022-09-25T16:56:23;22.30;38.90
61916;DHT22;47868;51.326;6.550;2022-09-25T16:58:53;21.90;39.80
61916;DHT22;47868;51.326;6.550;2022-09-25T17:01:20;21.50;40.60
61916;DHT22;47868;51.326;6.550;2022-09-25T17:03:46;21.10;41.90
61916;DHT22;47868;51.326;6.550;2022-09-25T17:06:19;20.80;42.40
61916;DHT22;47868;51.326;6.550;2022-09-25T17:08:45;20.70;43.00
61916;DHT22;47868;51.326;6.550;2022-09-25T17:11:12;20.60;43.10
61916;DHT22;47868;51.326;6.550;2022-09-25T17:13:38;20.60;43.20
61916;DHT22;47868;51.326;6.550;2022-09-25T17:16:04;20.60;43.60
61916;DHT22;47868;51.326;6.550;2022-09-25T17:18:30;20.60;43.70
61916;DHT22;47868;51.326;6.550;2022-09-25T17:20:58;20.30;44.20
61916;DHT22;47868;51.326;6.550;2022-09-25T17:23:26;20.30;45.00
61916;DHT22;47868;51.326;6.550;2022-09-25T17:26:15;20.10;45.30
61916;DHT22;47868;51.326;6.550;2022-09-25T17:28:42;19.80;45.90
61916;DHT22;47868;51.326;6.550;2022-09-25T17:31:14;19.80;46.60
61916;DHT22;47868;51.326;6.550;2022-09-25T17:33:40;19.80;46.60
61916;DHT22;47868;51.326;6.550;2022-09-25T17:36:09;19.80;46.80
61916;DHT22;47868;51.326;6.550;2022-09-25T17:38:35;19.90;47.30
61916;DHT22;47868;51.326;6.550;2022-09-25T17:41:06;19.80;47.40
61916;DHT22;47868;51.326;6.550;2022-09-25T17:43:34;19.50;47.80
61916;DHT22;47868;51.326;6.550;2022-09-25T17:46:00;19.40;48.50
61916;DHT22;47868;51.326;6.550;2022-09-25T17:48:28;19.40;48.70
61916;DHT22;47868;51.326;6.550;2022-09-25T17:50:59;19.30;48.90
61916;DHT22;47868;51.326;6.550;2022-09-25T17:53:28;19.20;49.50
61916;DHT22;47868;51.326;6.550;2022-09-25T17:55:55;19.20;49.70
61916;DHT22;47868;51.326;6.550;2022-09-25T17:58:22;19.30;49.80
61916;DHT22;47868;51.326;6.550;2022-09-25T18:00:49;19.30;50.10
61916;DHT22;47868;51.326;6.550;2022-09-25T18:03:16;19.20;50.50
61916;DHT22;47868;51.326;6.550;2022-09-25T18:05:42;18.90;51.60
61916;DHT22;47868;51.326;6.550;2022-09-25T18:08:10;18.90;52.40
61916;DHT22;47868;51.326;6.550;2022-09-25T18:10:37;18.90;52.20
61916;DHT22;47868;51.326;6.550;2022-09-25T18:13:05;18.60;52.80
61916;DHT22;47868;51.326;6.550;2022-09-25T18:15:34;18.50;53.50
61916;DHT22;47868;51.326;6.550;2022-09-25T18:18:03;18.60;53.70
61916;DHT22;47868;51.326;6.550;2022-09-25T18:20:29;18.50;53.80
61916;DHT22;47868;51.326;6.550;2022-09-25T18:23:14;18.40;54.00
61916;DHT22;47868;51.326;6.550;2022-09-25T18:25:40;18.40;55.10
61916;DHT22;47868;51.326;6.550;2022-09-25T18:28:06;18.20;55.50
61916;DHT22;47868;51.326;6.550;2022-09-25T18:30:33;18.10;56.20
61916;DHT22;47868;51.326;6.550;2022-09-25T18:32:59;18.00;56.70
61916;DHT22;47868;51.326;6.550;2022-09-25T18:35:25;17.90;57.60
61916;DHT22;47868;51.326;6.550;2022-09-25T18:37:51;18.00;58.20
61916;DHT22;47868;51.326;6.550;2022-09-25T18:40:18;18.10;58.60
61916;DHT22;47868;51.326;6.550;2022-09-25T18:42:44;17.90;58.40